sensor_id;sensor_type;location;lat;lon;timestamp;pressure;altitude;pressure_sealevel;temperature;humidity
68199;BME280;55021;51.554;17.044;2024-03-02T00:06:12;99864.31;;;13.34;92.12
68199;BME280;55021;51.554;17.044;2024-03-02T00:21:16;99855.66;;;12.58;94.42
68199;BME280;55021;51.554;17.044;2024-03-02T00:36:24;99859.38;;;13.08;91.98
68199;BME280;55021;51.554;17.044;2024-03-02T00:51:30;99865.47;;;13.10;92.28
68199;BME280;55021;51.554;17.044;2024-03-02T01:06:32;99860.09;;;13.16;91.41
68199;BME280;55021;51.554;17.044;2024-03-02T01:21:34;99795.44;;;12.76;90.40
68199;BME280;55021;51.554;17.044;2024-03-02T01:36:36;99860.66;;;12.26;91.40
68199;BME280;55021;51.554;17.044;2024-03-02T01:51:39;99839.00;;;12.18;93.15
68199;BME280;55021;51.554;17.044;2024-03-02T02:06:43;99859.38;;;12.87;90.52
68199;BME280;55021;51.554;17.044;2024-03-02T02:21:47;99851.81;;;12.68;90.69
68199;BME280;55021;51.554;17.044;2024-03-02T02:36:49;99843.06;;;12.72;89.71
68199;BME280;55021;51.554;17.044;2024-03-02T02:51:52;99830.34;;;12.58;90.34
68199;BME280;55021;51.554;17.044;2024-03-02T03:06:54;99839.72;;;12.55;90.47
68199;BME280;55021;51.554;17.044;2024-03-02T03:21:58;99814.28;;;12.27;91.06
68199;BME280;55021;51.554;17.044;2024-03-02T03:37:00;99814.16;;;11.91;90.78
68199;BME280;55021;51.554;17.044;2024-03-02T03:52:03;99801.53;;;11.32;91.60
68199;BME280;55021;51.554;17.044;2024-03-02T04:07:06;99848.38;;;12.15;89.64
68199;BME280;55021;51.554;17.044;2024-03-02T04:22:10;99847.59;;;12.06;90.12
68199;BME280;55021;51.554;17.044;2024-03-02T04:37:13;99855.78;;;12.21;89.49
68199;BME280;55021;51.554;17.044;2024-03-02T04:52:16;99827.19;;;11.96;89.50
68199;BME280;55021;51.554;17.044;2024-03-02T05:07:20;99861.31;;;12.57;86.97
68199;BME280;55021;51.554;17.044;2024-03-02T05:22:24;99852.97;;;12.29;87.24
68199;BME280;55021;51.554;17.044;2024-03-02T05:37:27;99879.31;;;12.14;88.85
68199;BME280;55021;51.554;17.044;2024-03-02T05:52:30;99878.09;;;12.17;87.70
68199;BME280;55021;51.554;17.044;2024-03-02T06:07:34;99903.13;;;12.27;87.19
68199;BME280;55021;51.554;17.044;2024-03-02T06:22:38;99922.97;;;11.90;88.99
68199;BME280;55021;51.554;17.044;2024-03-02T06:37:43;99934.44;;;12.52;86.39
68199;BME280;55021;51.554;17.044;2024-03-02T06:52:46;99923.25;;;12.18;87.97
68199;BME280;55021;51.554;17.044;2024-03-02T07:07:50;99938.53;;;12.92;86.05
68199;BME280;55021;51.554;17.044;2024-03-02T07:22:53;99942.66;;;13.59;84.12
68199;BME280;55021;51.554;17.044;2024-03-02T07:37:57;99948.34;;;14.07;81.82
68199;BME280;55021;51.554;17.044;2024-03-02T07:52:59;99961.53;;;14.31;80.36
68199;BME280;55021;51.554;17.044;2024-03-02T08:08:02;99964.19;;;14.80;77.66
68199;BME280;55021;51.554;17.044;2024-03-02T08:23:05;99960.88;;;14.50;80.63
68199;BME280;55021;51.554;17.044;2024-03-02T08:38:08;99958.31;;;14.76;79.92
68199;BME280;55021;51.554;17.044;2024-03-02T08:53:10;99944.00;;;16.02;75.70
68199;BME280;55021;51.554;17.044;2024-03-02T09:08:28;99949.03;;;16.44;72.52
68199;BME280;55021;51.554;17.044;2024-03-02T09:23:30;99962.81;;;17.08;69.86
68199;BME280;55021;51.554;17.044;2024-03-02T09:38:34;99954.22;;;17.49;67.48
68199;BME280;55021;51.554;17.044;2024-03-02T09:53:36;99955.03;;;17.87;64.88
68199;BME280;55021;51.554;17.044;2024-03-02T10:08:44;99939.09;;;17.71;62.94
68199;BME280;55021;51.554;17.044;2024-03-02T10:23:46;99942.47;;;17.98;63.56
68199;BME280;55021;51.554;17.044;2024-03-02T10:38:49;99921.91;;;18.32;60.61
68199;BME280;55021;51.554;17.044;2024-03-02T10:53:51;99944.69;;;18.14;61.88
68199;BME280;55021;51.554;17.044;2024-03-02T11:08:58;99931.88;;;18.51;60.34
68199;BME280;55021;51.554;17.044;2024-03-02T11:24:30;99932.59;;;18.46;61.25
68199;BME280;55021;51.554;17.044;2024-03-02T11:39:34;99918.91;;;18.40;62.27
68199;BME280;55021;51.554;17.044;2024-03-02T11:54:41;99901.94;;;18.25;61.51
68199;BME280;55021;51.554;17.044;2024-03-02T12:09:45;99930.28;;;18.43;61.99
68199;BME280;55021;51.554;17.044;2024-03-02T12:24:48;99854.88;;;18.46;60.90
68199;BME280;55021;51.554;17.044;2024-03-02T12:39:52;99913.00;;;18.79;60.73
68199;BME280;55021;51.554;17.044;2024-03-02T12:54:56;99913.75;;;17.38;65.47
68199;BME280;55021;51.554;17.044;2024-03-02T13:09:59;99907.66;;;16.92;67.21
68199;BME280;55021;51.554;17.044;2024-03-02T13:25:03;99913.09;;;16.98;67.96
68199;BME280;55021;51.554;17.044;2024-03-02T13:40:07;99902.25;;;16.79;69.09
68199;BME280;55021;51.554;17.044;2024-03-02T13:55:11;99909.88;;;17.14;68.07
68199;BME280;55021;51.554;17.044;2024-03-02T14:10:15;99918.50;;;17.18;69.05
68199;BME280;55021;51.554;17.044;2024-03-02T14:25:23;99909.13;;;16.94;70.47
68199;BME280;55021;51.554;17.044;2024-03-02T14:40:27;99888.38;;;16.60;71.04
68199;BME280;55021;51.554;17.044;2024-03-02T14:55:29;99891.69;;;17.64;68.70
68199;BME280;55021;51.554;17.044;2024-03-02T15:10:31;99879.38;;;16.40;72.64
68199;BME280;55021;51.554;17.044;2024-03-02T15:25:35;99901.69;;;16.31;75.03
68199;BME280;55021;51.554;17.044;2024-03-02T15:40:37;99911.19;;;15.82;76.65
68199;BME280;55021;51.554;17.044;2024-03-02T15:55:40;99872.44;;;15.46;75.20
68199;BME280;55021;51.554;17.044;2024-03-02T16:10:43;99815.56;;;14.82;75.36
68199;BME280;55021;51.554;17.044;2024-03-02T16:25:45;99897.22;;;15.38;74.82
68199;BME280;55021;51.554;17.044;2024-03-02T16:40:47;99869.38;;;14.95;75.20
68199;BME280;55021;51.554;17.044;2024-03-02T16:55:50;99873.03;;;14.27;77.07
68199;BME280;55021;51.554;17.044;2024-03-02T17:10:52;99897.34;;;14.28;77.99
68199;BME280;55021;51.554;17.044;2024-03-02T17:25:54;99917.63;;;14.81;76.66
68199;BME280;55021;51.554;17.044;2024-03-02T17:40:57;99824.41;;;14.03;76.24
68199;BME280;55021;51.554;17.044;2024-03-02T17:55:59;99927.88;;;14.45;76.12
68199;BME280;55021;51.554;17.044;2024-03-02T18:11:02;99931.53;;;14.03;78.07
68199;BME280;55021;51.554;17.044;2024-03-02T18:26:04;99925.16;;;14.17;77.54
68199;BME280;55021;51.554;17.044;2024-03-02T18:41:07;99929.63;;;13.76;80.56
68199;BME280;55021;51.554;17.044;2024-03-02T18:56:09;99929.72;;;14.10;80.47
68199;BME280;55021;51.554;17.044;2024-03-02T19:11:13;99875.66;;;13.22;83.74
68199;BME280;55021;51.554;17.044;2024-03-02T19:26:16;99909.94;;;14.02;83.40
68199;BME280;55021;51.554;17.044;2024-03-02T19:41:18;99882.00;;;13.08;87.28
68199;BME280;55021;51.554;17.044;2024-03-02T19:56:21;99923.75;;;13.72;86.10
68199;BME280;55021;51.554;17.044;2024-03-02T20:11:24;99896.69;;;13.29;88.79
68199;BME280;55021;51.554;17.044;2024-03-02T20:26:26;99907.59;;;13.50;87.94
68199;BME280;55021;51.554;17.044;2024-03-02T20:41:29;99883.47;;;12.90;89.46
68199;BME280;55021;51.554;17.044;2024-03-02T20:56:32;99916.78;;;13.13;88.76
68199;BME280;55021;51.554;17.044;2024-03-02T21:11:50;99914.75;;;12.35;90.50
68199;BME280;55021;51.554;17.044;2024-03-02T21:42:46;99886.84;;;13.13;84.52
68199;BME280;55021;51.554;17.044;2024-03-02T21:58:05;99839.94;;;12.90;83.39
68199;BME280;55021;51.554;17.044;2024-03-02T22:13:36;99836.84;;;12.42;86.57
68199;BME280;55021;51.554;17.044;2024-03-02T22:28:57;99925.88;;;13.35;85.37
68199;BME280;55021;51.554;17.044;2024-03-02T22:44:00;99933.81;;;13.15;85.74
68199;BME280;55021;51.554;17.044;2024-03-02T22:59:03;99932.22;;;13.06;85.66
68199;BME280;55021;51.554;17.044;2024-03-02T23:14:05;99920.47;;;13.05;85.16
68199;BME280;55021;51.554;17.044;2024-03-02T23:29:08;99912.34;;;12.91;86.12
68199;BME280;55021;51.554;17.044;2024-03-02T23:44:10;99886.78;;;12.12;88.68
68199;BME280;55021;51.554;17.044;2024-03-02T23:59:16;99898.66;;;12.99;86.16
